createdAt,value
2022-12-17T00:00:10.897Z,92.46
2022-12-17T00:04:34.177Z,92.23
2022-12-17T00:08:54.709Z,92.90
2022-12-17T00:13:15.059Z,92.85
2022-12-17T00:17:35.670Z,93.01
2022-12-17T00:21:56.303Z,93.23
2022-12-17T00:26:16.694Z,93.36
2022-12-17T00:30:38.688Z,93.42
2022-12-17T00:34:59.013Z,93.21
2022-12-17T00:39:19.115Z,93.24
2022-12-17T00:43:39.869Z,93.46
2022-12-17T00:48:11.221Z,93.96
2022-12-17T00:52:31.399Z,93.83
2022-12-17T00:56:51.663Z,93.71
2022-12-17T01:01:17.901Z,94.01
2022-12-17T01:05:38.073Z,94.32
2022-12-17T01:09:58.441Z,94.07
2022-12-17T01:14:18.750Z,93.97
2022-12-17T01:18:49.850Z,94.20
2022-12-17T01:23:09.939Z,94.20
2022-12-17T01:27:30.137Z,94.47
2022-12-17T01:31:50.603Z,94.60
2022-12-17T01:36:17.938Z,94.53
2022-12-17T01:40:38.353Z,95.00
2022-12-17T01:45:08.402Z,94.94
2022-12-17T01:49:30.842Z,95.00
2022-12-17T01:53:56.756Z,95.31
2022-12-17T01:58:18.529Z,95.25
2022-12-17T02:02:39.029Z,95.41
2022-12-17T02:07:09.238Z,95.74
2022-12-17T02:12:08.635Z,95.83
2022-12-17T02:16:47.286Z,96.06
2022-12-17T02:21:10.593Z,96.05
2022-12-17T02:25:46.984Z,96.25
2022-12-17T02:30:14.466Z,96.19
2022-12-17T02:34:35.029Z,96.37
2022-12-17T02:38:56.802Z,96.37
2022-12-17T02:43:20.167Z,96.38
2022-12-17T02:47:42.595Z,96.32
2022-12-17T02:52:04.024Z,96.38
2022-12-17T02:56:24.251Z,96.88
2022-12-17T03:00:44.810Z,96.46
2022-12-17T03:05:21.466Z,96.69
2022-12-17T03:09:45.471Z,96.96
2022-12-17T03:14:06.604Z,96.94
2022-12-17T03:18:27.175Z,97.13
2022-12-17T03:22:47.531Z,96.85
2022-12-17T03:27:08.465Z,97.14
2022-12-17T03:31:28.933Z,97.17
2022-12-17T03:35:49.441Z,97.34
2022-12-17T03:40:09.800Z,97.42
2022-12-17T03:44:30.053Z,97.00
2022-12-17T03:48:50.505Z,97.15
2022-12-17T03:53:10.640Z,97.22
2022-12-17T03:57:30.891Z,96.92
2022-12-17T04:01:51.349Z,97.24
2022-12-17T04:06:12.004Z,97.22
2022-12-17T04:10:32.408Z,97.13
2022-12-17T04:14:52.871Z,97.01
2022-12-17T04:19:13.268Z,96.93
2022-12-17T04:23:33.897Z,96.90
2022-12-17T04:27:54.534Z,97.18
2022-12-17T04:32:14.915Z,96.71
2022-12-17T04:36:35.119Z,97.08
2022-12-17T04:40:55.440Z,97.03
2022-12-17T04:45:15.887Z,97.14
2022-12-17T04:49:36.173Z,97.15
2022-12-17T04:53:56.531Z,96.80
2022-12-17T04:58:24.651Z,97.01
2022-12-17T21:22:02.613Z,95.83
2022-12-17T21:26:04.382Z,96.92
2022-12-17T21:30:13.648Z,97.33
2022-12-17T21:34:21.909Z,98.40
2022-12-17T21:38:23.632Z,98.98
2022-12-17T21:42:43.906Z,99.83
2022-12-17T21:46:46.897Z,100.00
2022-12-17T21:50:52.170Z,100.00
2022-12-17T21:54:54.148Z,100.00
2022-12-17T21:58:58.336Z,100.00
2022-12-17T22:03:00.250Z,100.00
2022-12-17T22:07:06.846Z,100.00
2022-12-17T22:11:12.054Z,100.00
2022-12-17T22:15:13.852Z,100.00
2022-12-17T22:19:20.314Z,100.00
2022-12-17T22:23:24.387Z,100.00
2022-12-17T22:27:26.461Z,100.00
2022-12-17T22:31:46.761Z,100.00
2022-12-17T22:38:22.613Z,100.00
2022-12-17T22:44:31.259Z,100.00
2022-12-17T22:44:51.320Z,100.00
2022-12-17T22:48:55.377Z,100.00
2022-12-17T22:52:57.356Z,100.00
2022-12-17T22:57:35.847Z,100.00
2022-12-17T23:01:23.170Z,100.00
2022-12-17T23:05:27.104Z,100.00
2022-12-17T23:09:28.929Z,100.00
2022-12-17T23:13:30.932Z,100.00
2022-12-17T23:17:35.104Z,100.00
2022-12-17T23:21:37.702Z,100.00
2022-12-17T23:25:39.373Z,100.00
2022-12-17T23:29:41.136Z,100.00
2022-12-17T23:33:43.280Z,100.00
2022-12-17T23:37:44.984Z,100.00
2022-12-17T23:41:46.678Z,100.00
2022-12-17T23:45:48.449Z,100.00
2022-12-17T23:49:50.236Z,100.00
2022-12-17T23:53:52.512Z,100.00
2022-12-17T23:57:56.673Z,100.00
